sensor_id;sensor_type;location;lat;lon;timestamp;P1;durP1;ratioP1;P2;durP2;ratioP2
5195;SDS011;2617;51.006;12.436;2023-03-12T00:04:54;3.03;;;2.17;;
5195;SDS011;2617;51.006;12.436;2023-03-12T00:09:56;2.30;;;1.70;;
5195;SDS011;2617;51.006;12.436;2023-03-12T00:14:58;2.53;;;1.45;;
5195;SDS011;2617;51.006;12.436;2023-03-12T00:20:00;2.83;;;1.55;;
5195;SDS011;2617;51.006;12.436;2023-03-12T00:25:02;1.30;;;1.20;;
5195;SDS011;2617;51.006;12.436;2023-03-12T00:30:04;2.83;;;1.20;;
5195;SDS011;2617;51.006;12.436;2023-03-12T00:35:06;3.57;;;1.77;;
5195;SDS011;2617;51.006;12.436;2023-03-12T00:40:10;5.43;;;1.13;;
5195;SDS011;2617;51.006;12.436;2023-03-12T00:45:13;2.53;;;1.77;;
5195;SDS011;2617;51.006;12.436;2023-03-12T00:50:15;2.33;;;1.50;;
5195;SDS011;2617;51.006;12.436;2023-03-12T00:55:16;3.30;;;1.60;;
5195;SDS011;2617;51.006;12.436;2023-03-12T01:00:19;1.45;;;1.35;;
5195;SDS011;2617;51.006;12.436;2023-03-12T01:05:21;1.00;;;1.00;;
5195;SDS011;2617;51.006;12.436;2023-03-12T01:10:23;1.40;;;1.10;;
5195;SDS011;2617;51.006;12.436;2023-03-12T01:15:26;0.90;;;0.90;;
5195;SDS011;2617;51.006;12.436;2023-03-12T01:20:27;1.73;;;1.60;;
5195;SDS011;2617;51.006;12.436;2023-03-12T01:25:29;4.70;;;1.55;;
5195;SDS011;2617;51.006;12.436;2023-03-12T01:30:31;2.00;;;1.47;;
5195;SDS011;2617;51.006;12.436;2023-03-12T01:35:34;5.90;;;1.60;;
5195;SDS011;2617;51.006;12.436;2023-03-12T01:40:35;3.33;;;2.03;;
5195;SDS011;2617;51.006;12.436;2023-03-12T01:50:51;2.07;;;0.97;;
5195;SDS011;2617;51.006;12.436;2023-03-12T01:55:53;0.90;;;0.80;;
5195;SDS011;2617;51.006;12.436;2023-03-12T02:00:55;1.40;;;1.30;;
5195;SDS011;2617;51.006;12.436;2023-03-12T02:06:03;1.70;;;1.60;;
5195;SDS011;2617;51.006;12.436;2023-03-12T02:11:04;1.30;;;1.00;;
5195;SDS011;2617;51.006;12.436;2023-03-12T02:16:06;3.92;;;1.60;;
5195;SDS011;2617;51.006;12.436;2023-03-12T02:21:14;1.03;;;1.03;;
5195;SDS011;2617;51.006;12.436;2023-03-12T02:26:14;1.57;;;1.47;;
5195;SDS011;2617;51.006;12.436;2023-03-12T02:31:17;3.13;;;1.17;;
5195;SDS011;2617;51.006;12.436;2023-03-12T02:36:18;2.80;;;0.97;;
5195;SDS011;2617;51.006;12.436;2023-03-12T02:41:21;4.00;;;1.10;;
5195;SDS011;2617;51.006;12.436;2023-03-12T02:46:22;3.13;;;1.33;;
5195;SDS011;2617;51.006;12.436;2023-03-12T02:51:25;2.73;;;1.50;;
5195;SDS011;2617;51.006;12.436;2023-03-12T02:56:27;5.30;;;1.33;;
5195;SDS011;2617;51.006;12.436;2023-03-12T03:01:28;1.40;;;1.20;;
5195;SDS011;2617;51.006;12.436;2023-03-12T03:06:30;2.30;;;1.20;;
5195;SDS011;2617;51.006;12.436;2023-03-12T03:11:32;1.43;;;1.23;;
5195;SDS011;2617;51.006;12.436;2023-03-12T03:16:33;1.57;;;0.73;;
5195;SDS011;2617;51.006;12.436;2023-03-12T03:21:36;3.67;;;1.33;;
5195;SDS011;2617;51.006;12.436;2023-03-12T03:26:38;0.70;;;0.70;;
5195;SDS011;2617;51.006;12.436;2023-03-12T03:31:40;1.20;;;1.10;;
5195;SDS011;2617;51.006;12.436;2023-03-12T03:36:42;3.13;;;1.33;;
5195;SDS011;2617;51.006;12.436;2023-03-12T03:41:44;1.63;;;0.80;;
5195;SDS011;2617;51.006;12.436;2023-03-12T03:46:45;3.20;;;1.20;;
5195;SDS011;2617;51.006;12.436;2023-03-12T03:51:47;0.90;;;0.90;;
5195;SDS011;2617;51.006;12.436;2023-03-12T03:56:49;2.97;;;1.00;;
5195;SDS011;2617;51.006;12.436;2023-03-12T04:01:51;2.27;;;1.17;;
5195;SDS011;2617;51.006;12.436;2023-03-12T04:06:52;1.20;;;1.10;;
5195;SDS011;2617;51.006;12.436;2023-03-12T04:11:54;1.30;;;1.30;;
5195;SDS011;2617;51.006;12.436;2023-03-12T04:16:57;4.27;;;1.07;;
5195;SDS011;2617;51.006;12.436;2023-03-12T04:21:58;2.40;;;1.08;;
5195;SDS011;2617;51.006;12.436;2023-03-12T04:27:00;0.70;;;0.70;;
5195;SDS011;2617;51.006;12.436;2023-03-12T04:32:02;4.43;;;1.20;;
5195;SDS011;2617;51.006;12.436;2023-03-12T04:37:04;1.23;;;1.20;;
5195;SDS011;2617;51.006;12.436;2023-03-12T04:42:06;0.67;;;0.67;;
5195;SDS011;2617;51.006;12.436;2023-03-12T04:47:08;0.90;;;0.80;;
5195;SDS011;2617;51.006;12.436;2023-03-12T04:52:09;1.10;;;1.10;;
5195;SDS011;2617;51.006;12.436;2023-03-12T04:57:11;0.77;;;0.77;;
5195;SDS011;2617;51.006;12.436;2023-03-12T05:02:13;2.80;;;1.20;;
5195;SDS011;2617;51.006;12.436;2023-03-12T05:07:15;1.30;;;1.20;;
5195;SDS011;2617;51.006;12.436;2023-03-12T05:12:17;1.87;;;1.23;;
5195;SDS011;2617;51.006;12.436;2023-03-12T05:17:19;1.00;;;0.90;;
5195;SDS011;2617;51.006;12.436;2023-03-12T05:22:21;4.40;;;1.40;;
5195;SDS011;2617;51.006;12.436;2023-03-12T05:27:23;0.93;;;0.90;;
5195;SDS011;2617;51.006;12.436;2023-03-12T05:32:25;1.47;;;1.37;;
5195;SDS011;2617;51.006;12.436;2023-03-12T05:37:27;2.07;;;1.20;;
5195;SDS011;2617;51.006;12.436;2023-03-12T05:42:29;1.33;;;1.20;;
5195;SDS011;2617;51.006;12.436;2023-03-12T05:47:31;2.30;;;1.00;;
5195;SDS011;2617;51.006;12.436;2023-03-12T05:52:33;0.87;;;0.87;;
5195;SDS011;2617;51.006;12.436;2023-03-12T05:57:34;7.97;;;0.85;;
5195;SDS011;2617;51.006;12.436;2023-03-12T06:02:36;2.20;;;1.10;;
5195;SDS011;2617;51.006;12.436;2023-03-12T06:07:38;5.70;;;1.40;;
5195;SDS011;2617;51.006;12.436;2023-03-12T06:12:40;1.97;;;1.07;;
5195;SDS011;2617;51.006;12.436;2023-03-12T06:17:41;2.03;;;1.30;;
5195;SDS011;2617;51.006;12.436;2023-03-12T06:22:43;1.70;;;1.07;;
5195;SDS011;2617;51.006;12.436;2023-03-12T06:27:45;1.90;;;1.10;;
5195;SDS011;2617;51.006;12.436;2023-03-12T06:32:46;5.33;;;1.40;;
5195;SDS011;2617;51.006;12.436;2023-03-12T06:37:48;1.93;;;1.20;;
5195;SDS011;2617;51.006;12.436;2023-03-12T06:42:51;1.33;;;1.20;;
5195;SDS011;2617;51.006;12.436;2023-03-12T06:47:53;1.50;;;1.40;;
5195;SDS011;2617;51.006;12.436;2023-03-12T06:52:55;3.20;;;1.70;;
5195;SDS011;2617;51.006;12.436;2023-03-12T06:57:58;2.22;;;1.48;;
5195;SDS011;2617;51.006;12.436;2023-03-12T07:02:59;1.93;;;1.57;;
5195;SDS011;2617;51.006;12.436;2023-03-12T07:08:02;1.67;;;1.57;;
5195;SDS011;2617;51.006;12.436;2023-03-12T07:13:04;2.40;;;2.20;;
5195;SDS011;2617;51.006;12.436;2023-03-12T07:18:07;2.70;;;1.90;;
5195;SDS011;2617;51.006;12.436;2023-03-12T07:23:08;3.53;;;2.15;;
5195;SDS011;2617;51.006;12.436;2023-03-12T07:28:10;14.03;;;6.53;;
5195;SDS011;2617;51.006;12.436;2023-03-12T07:33:11;3.67;;;2.50;;
5195;SDS011;2617;51.006;12.436;2023-03-12T07:38:14;2.93;;;2.13;;
5195;SDS011;2617;51.006;12.436;2023-03-12T07:43:16;5.70;;;2.90;;
5195;SDS011;2617;51.006;12.436;2023-03-12T07:48:17;5.73;;;3.20;;
5195;SDS011;2617;51.006;12.436;2023-03-12T07:53:19;1.73;;;1.60;;
5195;SDS011;2617;51.006;12.436;2023-03-12T07:58:21;1.57;;;1.47;;
5195;SDS011;2617;51.006;12.436;2023-03-12T08:03:23;4.17;;;1.80;;
5195;SDS011;2617;51.006;12.436;2023-03-12T08:08:25;3.12;;;1.90;;
5195;SDS011;2617;51.006;12.436;2023-03-12T08:13:28;2.03;;;1.85;;
5195;SDS011;2617;51.006;12.436;2023-03-12T08:18:29;2.23;;;2.03;;
5195;SDS011;2617;51.006;12.436;2023-03-12T08:23:31;1.90;;;1.73;;
5195;SDS011;2617;51.006;12.436;2023-03-12T08:28:33;2.00;;;1.90;;
5195;SDS011;2617;51.006;12.436;2023-03-12T08:33:35;2.40;;;1.60;;
5195;SDS011;2617;51.006;12.436;2023-03-12T08:38:37;4.27;;;2.27;;
5195;SDS011;2617;51.006;12.436;2023-03-12T08:43:39;2.53;;;1.98;;
5195;SDS011;2617;51.006;12.436;2023-03-12T08:48:40;2.45;;;1.70;;
5195;SDS011;2617;51.006;12.436;2023-03-12T08:53:42;2.33;;;2.03;;
5195;SDS011;2617;51.006;12.436;2023-03-12T08:58:44;2.40;;;1.50;;
5195;SDS011;2617;51.006;12.436;2023-03-12T09:03:46;2.83;;;1.80;;
5195;SDS011;2617;51.006;12.436;2023-03-12T09:08:47;1.93;;;1.83;;
5195;SDS011;2617;51.006;12.436;2023-03-12T09:13:49;3.57;;;2.00;;
5195;SDS011;2617;51.006;12.436;2023-03-12T09:18:51;1.57;;;1.40;;
5195;SDS011;2617;51.006;12.436;2023-03-12T09:23:54;3.37;;;1.75;;
5195;SDS011;2617;51.006;12.436;2023-03-12T09:28:57;2.00;;;1.23;;
5195;SDS011;2617;51.006;12.436;2023-03-12T09:33:58;1.75;;;1.20;;
5195;SDS011;2617;51.006;12.436;2023-03-12T09:39:00;3.80;;;1.43;;
5195;SDS011;2617;51.006;12.436;2023-03-12T09:44:08;3.23;;;1.70;;
5195;SDS011;2617;51.006;12.436;2023-03-12T09:49:10;1.98;;;1.87;;
5195;SDS011;2617;51.006;12.436;2023-03-12T09:54:15;2.20;;;1.63;;
5195;SDS011;2617;51.006;12.436;2023-03-12T09:59:13;2.67;;;1.60;;
5195;SDS011;2617;51.006;12.436;2023-03-12T10:04:20;4.93;;;1.83;;
5195;SDS011;2617;51.006;12.436;2023-03-12T10:09:32;1.65;;;1.48;;
5195;SDS011;2617;51.006;12.436;2023-03-12T10:14:48;2.40;;;1.70;;
5195;SDS011;2617;51.006;12.436;2023-03-12T10:19:55;1.60;;;1.50;;
5195;SDS011;2617;51.006;12.436;2023-03-12T10:24:55;4.22;;;2.72;;
5195;SDS011;2617;51.006;12.436;2023-03-12T10:29:56;1.80;;;1.70;;
5195;SDS011;2617;51.006;12.436;2023-03-12T10:34:59;1.50;;;1.40;;
5195;SDS011;2617;51.006;12.436;2023-03-12T10:40:00;3.27;;;2.00;;
5195;SDS011;2617;51.006;12.436;2023-03-12T10:45:13;2.73;;;1.63;;
5195;SDS011;2617;51.006;12.436;2023-03-12T10:50:16;4.87;;;1.70;;
5195;SDS011;2617;51.006;12.436;2023-03-12T10:55:24;3.83;;;2.10;;
5195;SDS011;2617;51.006;12.436;2023-03-12T11:00:27;2.47;;;1.63;;
5195;SDS011;2617;51.006;12.436;2023-03-12T11:05:29;1.87;;;1.77;;
5195;SDS011;2617;51.006;12.436;2023-03-12T11:10:41;3.05;;;1.60;;
5195;SDS011;2617;51.006;12.436;2023-03-12T11:15:42;2.17;;;1.97;;
5195;SDS011;2617;51.006;12.436;2023-03-12T11:20:44;1.70;;;1.60;;
5195;SDS011;2617;51.006;12.436;2023-03-12T11:25:51;2.50;;;2.30;;
5195;SDS011;2617;51.006;12.436;2023-03-12T11:30:52;6.10;;;1.77;;
5195;SDS011;2617;51.006;12.436;2023-03-12T11:46:55;1.47;;;1.37;;
5195;SDS011;2617;51.006;12.436;2023-03-12T11:52:00;2.00;;;1.87;;
5195;SDS011;2617;51.006;12.436;2023-03-12T11:57:02;5.26;;;1.72;;
5195;SDS011;2617;51.006;12.436;2023-03-12T12:07:26;1.20;;;1.10;;
5195;SDS011;2617;51.006;12.436;2023-03-12T12:12:37;1.15;;;1.00;;
5195;SDS011;2617;51.006;12.436;2023-03-12T12:17:46;1.60;;;1.50;;
5195;SDS011;2617;51.006;12.436;2023-03-12T12:22:56;1.40;;;1.30;;
5195;SDS011;2617;51.006;12.436;2023-03-12T12:33:31;2.77;;;0.70;;
5195;SDS011;2617;51.006;12.436;2023-03-12T12:38:47;1.00;;;0.90;;
5195;SDS011;2617;51.006;12.436;2023-03-12T12:43:49;2.00;;;0.80;;
5195;SDS011;2617;51.006;12.436;2023-03-12T12:48:52;2.00;;;1.00;;
5195;SDS011;2617;51.006;12.436;2023-03-12T12:54:04;3.23;;;1.40;;
5195;SDS011;2617;51.006;12.436;2023-03-12T13:04:36;3.00;;;0.70;;
5195;SDS011;2617;51.006;12.436;2023-03-12T13:09:40;2.10;;;1.30;;
5195;SDS011;2617;51.006;12.436;2023-03-12T13:14:43;6.70;;;1.47;;
5195;SDS011;2617;51.006;12.436;2023-03-12T13:19:45;1.50;;;1.40;;
5195;SDS011;2617;51.006;12.436;2023-03-12T13:35:35;2.03;;;1.20;;
5195;SDS011;2617;51.006;12.436;2023-03-12T13:40:34;1.77;;;1.50;;
5195;SDS011;2617;51.006;12.436;2023-03-12T13:45:53;3.67;;;2.17;;
5195;SDS011;2617;51.006;12.436;2023-03-12T13:50:50;5.13;;;1.60;;
5195;SDS011;2617;51.006;12.436;2023-03-12T14:01:12;4.47;;;2.67;;
5195;SDS011;2617;51.006;12.436;2023-03-12T14:06:15;3.15;;;1.80;;
5195;SDS011;2617;51.006;12.436;2023-03-12T14:11:22;1.83;;;1.40;;
5195;SDS011;2617;51.006;12.436;2023-03-12T14:16:33;2.80;;;1.80;;
5195;SDS011;2617;51.006;12.436;2023-03-12T14:21:37;1.67;;;1.57;;
5195;SDS011;2617;51.006;12.436;2023-03-12T14:26:38;3.13;;;1.60;;
5195;SDS011;2617;51.006;12.436;2023-03-12T14:31:40;2.93;;;1.73;;
5195;SDS011;2617;51.006;12.436;2023-03-12T14:36:45;2.17;;;1.37;;
5195;SDS011;2617;51.006;12.436;2023-03-12T14:41:46;3.00;;;1.83;;
5195;SDS011;2617;51.006;12.436;2023-03-12T14:51:58;2.95;;;1.45;;
5195;SDS011;2617;51.006;12.436;2023-03-12T14:57:00;4.53;;;2.27;;
5195;SDS011;2617;51.006;12.436;2023-03-12T15:02:09;3.37;;;2.83;;
5195;SDS011;2617;51.006;12.436;2023-03-12T15:07:05;4.53;;;1.50;;
5195;SDS011;2617;51.006;12.436;2023-03-12T15:12:14;3.60;;;1.90;;
5195;SDS011;2617;51.006;12.436;2023-03-12T15:17:13;3.03;;;1.90;;
5195;SDS011;2617;51.006;12.436;2023-03-12T15:22:17;1.40;;;1.30;;
5195;SDS011;2617;51.006;12.436;2023-03-12T15:27:20;1.70;;;1.60;;
5195;SDS011;2617;51.006;12.436;2023-03-12T15:32:23;2.10;;;1.60;;
5195;SDS011;2617;51.006;12.436;2023-03-12T15:37:30;2.00;;;1.90;;
5195;SDS011;2617;51.006;12.436;2023-03-12T15:42:36;4.30;;;2.47;;
5195;SDS011;2617;51.006;12.436;2023-03-12T15:47:38;5.20;;;2.40;;
5195;SDS011;2617;51.006;12.436;2023-03-12T15:52:39;4.07;;;1.70;;
5195;SDS011;2617;51.006;12.436;2023-03-12T15:57:45;2.00;;;1.90;;
5195;SDS011;2617;51.006;12.436;2023-03-12T16:02:48;2.30;;;1.40;;
5195;SDS011;2617;51.006;12.436;2023-03-12T16:07:49;3.73;;;1.60;;
5195;SDS011;2617;51.006;12.436;2023-03-12T16:12:53;4.17;;;1.90;;
5195;SDS011;2617;51.006;12.436;2023-03-12T16:17:53;1.50;;;1.40;;
5195;SDS011;2617;51.006;12.436;2023-03-12T16:22:54;7.07;;;2.27;;
5195;SDS011;2617;51.006;12.436;2023-03-12T16:27:57;3.77;;;1.83;;
5195;SDS011;2617;51.006;12.436;2023-03-12T16:32:59;2.03;;;1.92;;
5195;SDS011;2617;51.006;12.436;2023-03-12T16:38:01;1.63;;;1.53;;
5195;SDS011;2617;51.006;12.436;2023-03-12T16:43:04;1.50;;;1.40;;
5195;SDS011;2617;51.006;12.436;2023-03-12T16:48:05;1.87;;;1.50;;
5195;SDS011;2617;51.006;12.436;2023-03-12T16:53:08;1.93;;;1.53;;
5195;SDS011;2617;51.006;12.436;2023-03-12T16:58:10;1.60;;;1.50;;
5195;SDS011;2617;51.006;12.436;2023-03-12T17:03:15;1.83;;;1.13;;
5195;SDS011;2617;51.006;12.436;2023-03-12T17:08:29;1.40;;;1.30;;
5195;SDS011;2617;51.006;12.436;2023-03-12T17:13:30;1.23;;;1.12;;
5195;SDS011;2617;51.006;12.436;2023-03-12T17:18:32;1.50;;;0.90;;
5195;SDS011;2617;51.006;12.436;2023-03-12T17:23:35;2.00;;;1.17;;
5195;SDS011;2617;51.006;12.436;2023-03-12T17:28:36;1.33;;;1.20;;
5195;SDS011;2617;51.006;12.436;2023-03-12T17:33:38;1.50;;;1.40;;
5195;SDS011;2617;51.006;12.436;2023-03-12T17:38:40;1.17;;;1.17;;
5195;SDS011;2617;51.006;12.436;2023-03-12T17:43:42;1.10;;;1.10;;
5195;SDS011;2617;51.006;12.436;2023-03-12T17:48:45;1.50;;;0.70;;
5195;SDS011;2617;51.006;12.436;2023-03-12T17:53:46;0.97;;;0.97;;
5195;SDS011;2617;51.006;12.436;2023-03-12T17:58:49;0.77;;;0.77;;
5195;SDS011;2617;51.006;12.436;2023-03-12T18:03:51;1.00;;;1.00;;
5195;SDS011;2617;51.006;12.436;2023-03-12T18:08:53;0.63;;;0.63;;
5195;SDS011;2617;51.006;12.436;2023-03-12T18:13:55;0.63;;;0.60;;
5195;SDS011;2617;51.006;12.436;2023-03-12T18:18:57;0.70;;;0.70;;
5195;SDS011;2617;51.006;12.436;2023-03-12T18:23:59;2.05;;;1.27;;
5195;SDS011;2617;51.006;12.436;2023-03-12T18:29:00;0.83;;;0.83;;
5195;SDS011;2617;51.006;12.436;2023-03-12T18:34:02;0.73;;;0.73;;
5195;SDS011;2617;51.006;12.436;2023-03-12T18:39:04;3.85;;;0.80;;
5195;SDS011;2617;51.006;12.436;2023-03-12T18:44:06;1.02;;;0.90;;
5195;SDS011;2617;51.006;12.436;2023-03-12T18:49:07;6.33;;;3.97;;
5195;SDS011;2617;51.006;12.436;2023-03-12T18:54:09;1.13;;;0.90;;
5195;SDS011;2617;51.006;12.436;2023-03-12T18:59:11;0.87;;;0.63;;
5195;SDS011;2617;51.006;12.436;2023-03-12T19:04:14;1.00;;;1.00;;
5195;SDS011;2617;51.006;12.436;2023-03-12T19:09:16;1.23;;;1.03;;
5195;SDS011;2617;51.006;12.436;2023-03-12T19:14:17;2.33;;;1.30;;
5195;SDS011;2617;51.006;12.436;2023-03-12T19:19:19;1.00;;;1.00;;
5195;SDS011;2617;51.006;12.436;2023-03-12T19:24:22;1.57;;;1.30;;
5195;SDS011;2617;51.006;12.436;2023-03-12T19:29:24;1.77;;;1.20;;
5195;SDS011;2617;51.006;12.436;2023-03-12T19:34:25;1.80;;;1.30;;
5195;SDS011;2617;51.006;12.436;2023-03-12T19:39:28;1.42;;;1.33;;
5195;SDS011;2617;51.006;12.436;2023-03-12T19:44:30;1.40;;;1.30;;
5195;SDS011;2617;51.006;12.436;2023-03-12T19:49:33;1.50;;;1.40;;
5195;SDS011;2617;51.006;12.436;2023-03-12T19:54:35;1.87;;;1.77;;
5195;SDS011;2617;51.006;12.436;2023-03-12T19:59:36;1.50;;;1.40;;
5195;SDS011;2617;51.006;12.436;2023-03-12T20:04:38;3.33;;;2.90;;
5195;SDS011;2617;51.006;12.436;2023-03-12T20:09:40;2.90;;;2.70;;
5195;SDS011;2617;51.006;12.436;2023-03-12T20:14:42;2.20;;;2.10;;
5195;SDS011;2617;51.006;12.436;2023-03-12T20:19:43;1.73;;;1.60;;
5195;SDS011;2617;51.006;12.436;2023-03-12T20:24:45;2.60;;;2.50;;
5195;SDS011;2617;51.006;12.436;2023-03-12T20:29:47;3.60;;;2.10;;
5195;SDS011;2617;51.006;12.436;2023-03-12T20:34:49;2.10;;;1.43;;
5195;SDS011;2617;51.006;12.436;2023-03-12T20:39:51;2.37;;;1.80;;
5195;SDS011;2617;51.006;12.436;2023-03-12T20:44:52;1.67;;;1.57;;
5195;SDS011;2617;51.006;12.436;2023-03-12T20:49:55;3.43;;;1.70;;
5195;SDS011;2617;51.006;12.436;2023-03-12T20:54:57;3.50;;;1.90;;
5195;SDS011;2617;51.006;12.436;2023-03-12T20:59:58;3.47;;;1.83;;
5195;SDS011;2617;51.006;12.436;2023-03-12T21:05:01;1.80;;;1.70;;
5195;SDS011;2617;51.006;12.436;2023-03-12T21:10:03;2.50;;;2.00;;
5195;SDS011;2617;51.006;12.436;2023-03-12T21:15:06;4.97;;;2.47;;
5195;SDS011;2617;51.006;12.436;2023-03-12T21:20:09;6.03;;;1.90;;
5195;SDS011;2617;51.006;12.436;2023-03-12T21:25:11;3.33;;;2.23;;
5195;SDS011;2617;51.006;12.436;2023-03-12T21:30:13;4.97;;;3.00;;
5195;SDS011;2617;51.006;12.436;2023-03-12T21:35:16;4.13;;;2.47;;
5195;SDS011;2617;51.006;12.436;2023-03-12T21:40:18;5.40;;;2.80;;
5195;SDS011;2617;51.006;12.436;2023-03-12T21:45:19;3.20;;;2.67;;
5195;SDS011;2617;51.006;12.436;2023-03-12T21:50:21;5.90;;;2.93;;
5195;SDS011;2617;51.006;12.436;2023-03-12T21:55:24;5.65;;;3.67;;
5195;SDS011;2617;51.006;12.436;2023-03-12T22:00:25;3.00;;;2.70;;
5195;SDS011;2617;51.006;12.436;2023-03-12T22:05:28;6.47;;;3.73;;
5195;SDS011;2617;51.006;12.436;2023-03-12T22:10:29;4.87;;;3.70;;
5195;SDS011;2617;51.006;12.436;2023-03-12T22:15:32;5.37;;;3.12;;
5195;SDS011;2617;51.006;12.436;2023-03-12T22:20:34;8.77;;;3.40;;
5195;SDS011;2617;51.006;12.436;2023-03-12T22:25:36;4.73;;;3.23;;
5195;SDS011;2617;51.006;12.436;2023-03-12T22:30:37;4.50;;;3.40;;
5195;SDS011;2617;51.006;12.436;2023-03-12T22:35:43;12.20;;;5.07;;
5195;SDS011;2617;51.006;12.436;2023-03-12T22:40:44;5.60;;;3.50;;
5195;SDS011;2617;51.006;12.436;2023-03-12T22:45:46;10.73;;;3.77;;
5195;SDS011;2617;51.006;12.436;2023-03-12T22:50:52;6.07;;;3.30;;
5195;SDS011;2617;51.006;12.436;2023-03-12T22:55:56;5.80;;;3.40;;
5195;SDS011;2617;51.006;12.436;2023-03-12T23:00:59;8.53;;;3.30;;
5195;SDS011;2617;51.006;12.436;2023-03-12T23:06:06;4.53;;;2.57;;
5195;SDS011;2617;51.006;12.436;2023-03-12T23:11:08;15.20;;;5.00;;
5195;SDS011;2617;51.006;12.436;2023-03-12T23:16:11;12.23;;;3.17;;
5195;SDS011;2617;51.006;12.436;2023-03-12T23:21:13;7.80;;;3.58;;
5195;SDS011;2617;51.006;12.436;2023-03-12T23:26:14;8.40;;;3.83;;
5195;SDS011;2617;51.006;12.436;2023-03-12T23:31:16;8.90;;;3.67;;
5195;SDS011;2617;51.006;12.436;2023-03-12T23:36:19;10.60;;;3.87;;
5195;SDS011;2617;51.006;12.436;2023-03-12T23:41:21;8.47;;;3.67;;
5195;SDS011;2617;51.006;12.436;2023-03-12T23:46:23;9.13;;;4.60;;
5195;SDS011;2617;51.006;12.436;2023-03-12T23:51:25;9.00;;;4.57;;
5195;SDS011;2617;51.006;12.436;2023-03-12T23:56:30;12.53;;;3.53;;
